Time;durP1;ratioP1;P1;durP2;ratioP2;P2;SDS_P1;SDS_P2;PMS_P1;PMS_P2;Temp;Humidity;BMP_temperature;BMP_pressure;BME280_temperature;BME280_humidity;BME280_pressure;Samples;Min_cycle;Max_cycle;Signal;HPM_P1;HPM_P2
2023/02/12 00:00:07;;;;;;;;;;;2.00;99.90;2.70;101410.00;;;;342831;28;91856;-90
2023/02/12 00:00:19;;;;;;;;;;;2.00;99.90;2.60;101404.00;;;;340568;28;83547;-90
2023/02/12 00:00:31;;;;;;;;;;;1.90;99.90;2.60;101407.00;;;;341540;28;90552;-90
2023/02/12 00:00:43;;;;;;;;;;;2.00;99.90;2.50;101401.00;;;;341943;28;83390;-90
2023/02/12 00:00:55;;;;;;;;;;;1.90;99.90;2.50;101410.00;;;;342822;28;91252;-90
2023/02/12 00:01:08;;;;;;;;;;;1.90;99.90;2.60;101413.00;;;;342012;28;82544;-89
2023/02/12 00:01:20;;;;;;;;;;;1.90;99.90;2.60;101408.00;;;;338926;28;90392;-90
2023/02/12 00:01:32;;;;;;;;;;;1.90;99.90;2.70;101410.00;;;;340612;28;83495;-90
2023/02/12 00:01:44;;;;;;;;;;;1.90;99.90;2.80;101403.00;;;;342977;28;91006;-90
2023/02/12 00:01:55;;;;;;;;;;;1.90;99.90;2.80;101407.00;;;;340601;28;83372;-90
2023/02/12 00:02:07;;;;;;;;;;;2.00;99.90;2.80;101408.00;;;;341565;28;91414;-90
2023/02/12 00:02:19;;;;;;;;;;;2.00;99.90;2.80;101408.00;;;;341981;28;83437;-89
2023/02/12 00:02:31;;;;;;;;;;;1.90;99.90;2.60;101417.00;;;;341365;28;91667;-90
2023/02/12 00:02:43;;;;;;;;;;;1.90;99.90;2.70;101402.00;;;;341840;28;83394;-90
2023/02/12 00:02:54;;;;;;;;;;;1.90;99.90;2.70;101403.00;;;;338603;28;92594;-90
2023/02/12 00:03:06;;;;;;;;;;;1.90;99.90;2.70;101402.00;;;;340592;28;83604;-90
2023/02/12 00:03:18;;;;;;;;;;;1.90;99.90;2.80;101404.00;;;;340192;28;90180;-90
2023/02/12 00:03:30;;;;;;;;;;;1.90;99.90;2.80;101412.00;;;;339349;28;82556;-90
2023/02/12 00:03:42;;;;;;;;;;;1.90;99.90;2.90;101406.00;;;;341559;28;91839;-90
2023/02/12 00:03:54;;;;;;;;;;;2.00;99.90;2.80;101412.00;;;;340749;28;82426;-90
2023/02/12 00:04:06;;;;;;;;;;;2.00;99.90;2.70;101400.00;;;;341467;28;91708;-90
2023/02/12 00:04:17;;;;;;;;;;;2.00;99.90;2.50;101410.00;;;;342069;28;83319;-90
2023/02/12 00:04:29;;;;;;;;;;;2.00;99.90;2.60;101417.00;;;;341518;28;90277;-90
2023/02/12 00:04:41;;;;;;;;;;;1.90;99.90;2.50;101409.00;;;;340664;28;83313;-90
2023/02/12 00:04:53;;;;;;;;;;;1.90;99.90;2.60;101411.00;;;;340151;28;91816;-90
2023/02/12 00:05:05;;;;;;;;;;;1.90;99.90;2.70;101408.00;;;;341975;28;82577;-90
2023/02/12 00:05:17;;;;;;;;;;;1.90;99.90;2.80;101410.00;;;;340116;28;89621;-90
2023/02/12 00:05:29;;;;;;;;;;;1.90;99.90;2.70;101404.00;;;;342007;28;83401;-90
2023/02/12 00:05:41;;;;;;;;;;;1.90;99.90;2.80;101404.00;;;;338673;28;92042;-90
2023/02/12 00:05:53;;;;;;;;;;;1.90;99.90;2.80;101404.00;;;;340643;28;83504;-90
2023/02/12 00:06:06;;;;;;;;;;;1.90;99.90;2.80;101408.00;;;;341484;28;90644;-90
2023/02/12 00:06:18;;;;;;;;;;;1.90;99.90;2.70;101411.00;;;;340676;28;83357;-90
2023/02/12 00:06:29;;;;;;;;;;;1.90;99.90;2.60;101424.00;;;;340179;28;89179;-89
2023/02/12 00:06:41;;;;;;;;;;;1.90;99.90;2.70;101410.00;;;;340647;28;83301;-90
2023/02/12 00:06:53;;;;;;;;;;;2.00;99.90;2.70;101415.00;;;;340108;28;91824;-90
2023/02/12 00:07:05;;;;;;;;;;;1.90;99.90;2.60;101410.00;;;;340595;28;82539;-90
2023/02/12 00:07:17;;;;;;;;;;;1.90;99.90;2.70;101408.00;;;;340327;28;91257;-90
2023/02/12 00:07:30;;;;;;;;;;;1.90;99.90;2.70;101413.00;;;;340311;28;83583;-90
2023/02/12 00:07:41;;;;;;;;;;;1.90;99.90;2.70;101410.00;;;;337581;28;91386;-90
2023/02/12 00:07:53;;;;;;;;;;;1.90;99.90;2.70;101413.00;;;;340557;28;83411;-90
2023/02/12 00:08:05;;;;;;;;;;;1.90;99.90;2.60;101409.00;;;;338872;28;91509;-90
2023/02/12 00:08:17;;;;;;;;;;;1.90;99.90;2.70;101418.00;;;;339409;28;82656;-90
2023/02/12 00:08:29;;;;;;;;;;;1.90;99.90;2.70;101410.00;;;;340172;28;90485;-90
2023/02/12 00:08:40;;;;;;;;;;;1.90;99.90;2.80;101400.00;;;;338031;28;82528;-90
2023/02/12 00:08:53;;;;;;;;;;;2.00;99.90;2.60;101404.00;;;;340126;28;91389;-90
2023/02/12 00:09:05;;;;;;;;;;;1.90;99.90;2.70;101411.00;;;;340645;28;83416;-90
2023/02/12 00:09:17;;;;;;;;;;;1.90;99.90;2.70;101411.00;;;;341531;28;90421;-90
2023/02/12 00:09:29;;;;;;;;;;;1.90;99.90;2.80;101410.00;;;;341650;28;83575;-90
2023/02/12 00:09:40;;;;;;;;;;;1.90;99.90;2.70;101401.00;;;;339013;28;90493;-90
2023/02/12 00:09:52;;;;;;;;;;;1.90;99.90;2.70;101415.00;;;;339373;28;82997;-90
2023/02/12 00:10:04;;;;;;;;;;;2.00;99.90;2.80;101414.00;;;;341499;28;90298;-90
2023/02/12 00:10:16;;;;;;;;;;;2.00;99.90;2.80;101417.00;;;;339261;28;83575;-90
2023/02/12 00:10:28;;;;;;;;;;;2.00;99.90;2.80;101413.00;;;;337550;28;90307;-90
2023/02/12 00:10:41;;;;;;;;;;;2.00;99.90;2.80;101413.00;;;;337988;28;83341;-90
2023/02/12 00:10:54;;;;;;;;;;;2.00;99.90;2.80;101408.00;;;;340201;28;92599;-90
2023/02/12 00:11:16;;;;;;;;;;;2.00;99.90;2.60;101415.00;;;;340702;28;83377;-90
2023/02/12 00:11:28;;;;;;;;;;;2.00;99.90;2.50;101414.00;;;;338782;28;91339;-90
2023/02/12 00:11:40;;;;;;;;;;;1.90;99.90;2.60;101420.00;;;;340718;28;82513;-90
2023/02/12 00:11:52;;;;;;;;;;;1.90;99.90;2.60;101421.00;;;;338888;28;91352;-90
2023/02/12 00:12:04;;;;;;;;;;;1.90;99.90;2.60;101418.00;;;;342023;28;82374;-89
2023/02/12 00:12:16;;;;;;;;;;;1.90;99.90;2.60;101419.00;;;;341668;28;90344;-90
2023/02/12 00:12:27;;;;;;;;;;;1.90;99.90;2.70;101408.00;;;;341879;28;83442;-90
2023/02/12 00:12:39;;;;;;;;;;;1.90;99.90;2.60;101420.00;;;;340063;28;90635;-90
2023/02/12 00:12:54;;;;;;;;;;;1.90;99.90;2.70;101409.00;;;;343170;28;82673;-89
2023/02/12 00:13:06;;;;;;;;;;;1.90;99.90;2.80;101412.00;;;;341499;28;91448;-90
2023/02/12 00:13:17;;;;;;;;;;;1.90;99.90;2.70;101412.00;;;;340654;28;83225;-90
2023/02/12 00:13:30;;;;;;;;;;;1.90;99.90;2.70;101412.00;;;;340124;28;91453;-90
2023/02/12 00:13:42;;;;;;;;;;;1.90;99.90;2.60;101413.00;;;;338003;28;83457;-89
2023/02/12 00:13:54;;;;;;;;;;;1.90;99.90;2.60;101413.00;;;;340083;28;90156;-90
2023/02/12 00:14:05;;;;;;;;;;;1.90;99.90;2.50;101418.00;;;;341750;28;83475;-90
2023/02/12 00:14:17;;;;;;;;;;;1.90;99.90;2.60;101410.00;;;;340342;28;88536;-90
2023/02/12 00:14:29;;;;;;;;;;;1.90;99.90;2.70;101409.00;;;;340509;28;83481;-90
2023/02/12 00:14:41;;;;;;;;;;;1.90;99.90;2.70;101414.00;;;;341776;28;87649;-90
2023/02/12 00:14:53;;;;;;;;;;;1.90;99.90;2.80;101410.00;;;;341991;28;82407;-90
2023/02/12 00:15:05;;;;;;;;;;;1.90;99.90;2.70;101404.00;;;;340109;28;91427;-90
2023/02/12 00:15:16;;;;;;;;;;;1.90;99.90;2.70;101404.00;;;;340427;28;84040;-89
2023/02/12 00:15:28;;;;;;;;;;;1.90;99.90;2.60;101404.00;;;;338780;28;91171;-90
2023/02/12 00:15:40;;;;;;;;;;;1.90;99.90;2.60;101406.00;;;;340692;28;82575;-90
2023/02/12 00:15:52;;;;;;;;;;;1.90;99.90;2.60;101410.00;;;;337590;28;90137;-90
2023/02/12 00:16:06;;;;;;;;;;;1.90;99.90;2.50;101414.00;;;;339263;28;82449;-90
2023/02/12 00:16:20;;;;;;;;;;;1.90;99.90;2.40;101402.00;;;;340301;28;91564;-90
2023/02/12 00:16:32;;;;;;;;;;;1.90;99.90;2.40;101402.00;;;;343255;28;82544;-90
2023/02/12 00:16:44;;;;;;;;;;;1.90;99.90;2.40;101411.00;;;;340135;28;91406;-91
2023/02/12 00:16:56;;;;;;;;;;;1.90;99.90;2.40;101406.00;;;;340677;28;82439;-90
2023/02/12 00:17:08;;;;;;;;;;;1.80;99.90;2.50;101407.00;;;;340246;28;91379;-90
2023/02/12 00:17:19;;;;;;;;;;;1.80;99.90;2.60;101412.00;;;;341991;28;83403;-89
2023/02/12 00:17:31;;;;;;;;;;;1.80;99.90;2.60;101411.00;;;;340163;28;91522;-89
2023/02/12 00:17:43;;;;;;;;;;;1.80;99.90;2.40;101407.00;;;;340646;28;83312;-90
2023/02/12 00:17:55;;;;;;;;;;;1.80;99.90;2.40;101407.00;;;;341570;28;90183;-89
2023/02/12 00:18:07;;;;;;;;;;;1.80;99.90;2.50;101416.00;;;;341910;28;83486;-90
2023/02/12 00:18:19;;;;;;;;;;;1.80;99.90;2.50;101415.00;;;;338754;28;91549;-90
2023/02/12 00:18:31;;;;;;;;;;;1.80;99.90;2.50;101417.00;;;;341778;28;83419;-90
2023/02/12 00:18:43;;;;;;;;;;;1.80;99.90;2.40;101421.00;;;;342855;28;91861;-90
2023/02/12 00:18:55;;;;;;;;;;;1.80;99.90;2.30;101408.00;;;;341948;28;83585;-90
2023/02/12 00:19:07;;;;;;;;;;;1.80;99.90;2.30;101407.00;;;;340131;28;91200;-90
2023/02/12 00:19:19;;;;;;;;;;;1.80;99.90;2.30;101414.00;;;;341968;28;82472;-90
2023/02/12 00:19:31;;;;;;;;;;;1.80;99.90;2.30;101411.00;;;;342842;28;91895;-89
2023/02/12 00:19:43;;;;;;;;;;;1.80;99.90;2.20;101410.00;;;;342024;28;83393;-90
2023/02/12 00:19:55;;;;;;;;;;;1.80;99.90;2.30;101414.00;;;;340220;28;90521;-90
2023/02/12 00:20:07;;;;;;;;;;;1.70;99.90;2.30;101409.00;;;;342011;28;83438;-90
2023/02/12 00:20:18;;;;;;;;;;;1.70;99.90;2.30;101413.00;;;;340206;28;90094;-90
2023/02/12 00:20:30;;;;;;;;;;;1.70;99.90;2.30;101414.00;;;;342003;28;83441;-90
2023/02/12 00:20:42;;;;;;;;;;;1.70;99.90;2.20;101406.00;;;;341186;28;90121;-90
2023/02/12 00:20:54;;;;;;;;;;;1.70;99.90;2.20;101414.00;;;;342011;28;82379;-89
2023/02/12 00:21:07;;;;;;;;;;;1.70;99.90;2.10;101417.00;;;;342812;28;92477;-90
2023/02/12 00:21:20;;;;;;;;;;;1.70;99.90;2.20;101416.00;;;;340408;28;83455;-90
2023/02/12 00:23:51;;;;;;;;;;;1.70;99.90;2.40;101413.00;;;;234080;28;86571;-85
2023/02/12 00:24:03;;;;;;;;;;;1.70;99.90;2.40;101412.00;;;;338906;28;89029;-90
2023/02/12 00:24:15;;;;;;;;;;;1.70;99.90;2.50;101413.00;;;;336679;28;83244;-90
2023/02/12 00:24:26;;;;;;;;;;;1.70;99.90;2.40;101414.00;;;;334814;29;92284;-90
2023/02/12 00:24:38;;;;;;;;;;;1.70;99.90;2.40;101413.00;;;;336537;28;82585;-90
2023/02/12 00:24:50;;;;;;;;;;;1.70;99.90;2.40;101411.00;;;;336252;28;91175;-90
2023/02/12 00:25:03;;;;;;;;;;;1.70;99.90;2.40;101413.00;;;;339341;28;85317;-90
2023/02/12 00:25:15;;;;;;;;;;;1.70;99.90;2.40;101409.00;;;;337510;28;91967;-89
2023/02/12 00:25:27;;;;;;;;;;;1.70;99.90;2.40;101413.00;;;;336665;28;83449;-89
2023/02/12 00:25:40;;;;;;;;;;;1.70;99.90;2.30;101425.00;;;;336217;28;91761;-90
2023/02/12 00:25:52;;;;;;;;;;;1.70;99.90;2.30;101406.00;;;;337692;28;83552;-90
2023/02/12 00:26:09;;;;;;;;;;;1.70;99.90;2.20;101421.00;;;;334710;29;91306;-90
2023/02/12 00:26:21;;;;;;;;;;;1.70;99.90;2.10;101412.00;;;;337349;28;83351;-89
2023/02/12 00:26:32;;;;;;;;;;;1.70;99.90;2.20;101415.00;;;;333554;29;92171;-89
2023/02/12 00:26:44;;;;;;;;;;;1.70;99.90;2.20;101413.00;;;;333691;29;83291;-89
2023/02/12 00:26:56;;;;;;;;;;;1.60;99.90;2.20;101418.00;;;;335002;29;91834;-90
2023/02/12 00:27:08;;;;;;;;;;;1.60;99.90;2.30;101409.00;;;;335413;29;83374;-90
2023/02/12 00:27:20;;;;;;;;;;;1.60;99.90;2.20;101418.00;;;;336287;28;91389;-90
2023/02/12 00:27:32;;;;;;;;;;;1.60;99.90;2.20;101416.00;;;;334072;29;83530;-90
2023/02/12 00:27:44;;;;;;;;;;;1.60;99.90;2.20;101418.00;;;;336158;28;91662;-90
2023/02/12 00:27:56;;;;;;;;;;;1.60;99.90;2.10;101415.00;;;;335426;29;83478;-89
2023/02/12 00:28:08;;;;;;;;;;;1.60;99.90;2.10;101409.00;;;;333452;29;90520;-90
2023/02/12 00:28:20;;;;;;;;;;;1.60;99.90;2.10;101419.00;;;;335310;29;83393;-89
2023/02/12 00:28:31;;;;;;;;;;;1.60;99.90;2.20;101414.00;;;;336248;28;92310;-90
2023/02/12 00:28:43;;;;;;;;;;;1.60;99.90;2.20;101416.00;;;;335307;29;83390;-90
2023/02/12 00:28:55;;;;;;;;;;;1.60;99.90;2.20;101413.00;;;;333715;29;90234;-90
2023/02/12 00:29:09;;;;;;;;;;;1.60;99.90;2.20;101412.00;;;;336661;28;83526;-90
2023/02/12 00:29:21;;;;;;;;;;;1.50;99.90;2.20;101416.00;;;;336219;28;90795;-90
2023/02/12 00:29:32;;;;;;;;;;;1.60;99.90;2.20;101404.00;;;;335392;29;83453;-90
2023/02/12 00:29:44;;;;;;;;;;;1.50;99.90;2.20;101414.00;;;;333683;29;91309;-90
2023/02/12 00:29:56;;;;;;;;;;;1.50;99.90;2.10;101413.00;;;;334074;29;82534;-89
2023/02/12 00:30:08;;;;;;;;;;;1.50;99.90;2.20;101407.00;;;;333742;29;91357;-90
2023/02/12 00:30:20;;;;;;;;;;;1.50;99.90;2.10;101411.00;;;;335484;29;83304;-90
2023/02/12 00:30:32;;;;;;;;;;;1.50;99.90;2.10;101408.00;;;;333510;29;92952;-90
2023/02/12 00:30:43;;;;;;;;;;;1.50;99.90;2.10;101417.00;;;;335153;29;83509;-90
2023/02/12 00:30:55;;;;;;;;;;;1.50;99.90;2.10;101412.00;;;;334750;29;89533;-89
2023/02/12 00:31:09;;;;;;;;;;;1.50;99.90;2.10;101417.00;;;;336675;28;83395;-90
2023/02/12 00:31:26;;;;;;;;;;;1.50;99.90;2.00;101412.00;;;;336306;28;91555;-90
2023/02/12 00:31:38;;;;;;;;;;;1.50;99.90;2.00;101417.00;;;;334071;29;82597;-90
2023/02/12 00:31:50;;;;;;;;;;;1.50;99.90;1.90;101409.00;;;;333551;29;90259;-90
2023/02/12 00:32:02;;;;;;;;;;;1.50;99.90;1.90;101415.00;;;;335289;29;82635;-90
2023/02/12 00:32:18;;;;;;;;;;;1.50;99.90;1.90;101407.00;;;;334922;29;91451;-90
2023/02/12 00:32:30;;;;;;;;;;;1.50;99.90;2.00;101411.00;;;;337900;28;83556;-90
2023/02/12 00:32:41;;;;;;;;;;;1.40;99.90;2.00;101407.00;;;;337401;28;92404;-90
2023/02/12 00:32:53;;;;;;;;;;;1.40;99.90;1.90;101409.00;;;;335297;29;83522;-90
2023/02/12 00:33:05;;;;;;;;;;;1.40;99.90;1.90;101409.00;;;;333640;29;91634;-90
2023/02/12 00:33:17;;;;;;;;;;;1.40;99.90;1.90;101403.00;;;;336677;28;83293;-90
2023/02/12 00:33:28;;;;;;;;;;;1.40;99.90;1.90;101407.00;;;;337605;28;89832;-90
2023/02/12 00:33:40;;;;;;;;;;;1.40;99.90;1.90;101406.00;;;;335433;29;83433;-90
2023/02/12 00:33:52;;;;;;;;;;;1.40;99.90;2.00;101412.00;;;;336103;28;89563;-90
2023/02/12 00:34:04;;;;;;;;;;;1.40;99.90;2.00;101400.00;;;;335110;29;83537;-90
2023/02/12 00:34:16;;;;;;;;;;;1.40;99.90;2.00;101400.00;;;;336212;28;92001;-90
2023/02/12 00:34:28;;;;;;;;;;;1.40;99.90;1.90;101397.00;;;;336694;28;83353;-90
2023/02/12 00:34:39;;;;;;;;;;;1.40;99.90;2.10;101406.00;;;;336245;28;89900;-90
2023/02/12 00:34:51;;;;;;;;;;;1.40;99.90;2.20;101400.00;;;;339325;28;82588;-90
2023/02/12 00:35:03;;;;;;;;;;;1.40;99.90;2.20;101395.00;;;;337417;28;91291;-90
2023/02/12 00:35:15;;;;;;;;;;;1.40;99.90;2.20;101393.00;;;;335347;29;83416;-90
2023/02/12 00:35:27;;;;;;;;;;;1.40;99.90;2.30;101392.00;;;;336045;28;92210;-90
2023/02/12 00:35:39;;;;;;;;;;;1.40;99.90;2.20;101399.00;;;;337981;28;83402;-90
2023/02/12 00:35:56;;;;;;;;;;;1.40;99.90;2.20;101398.00;;;;337581;28;90680;-90
2023/02/12 00:36:08;;;;;;;;;;;1.40;99.90;2.20;101406.00;;;;337958;28;82520;-90
2023/02/12 00:36:22;;;;;;;;;;;1.40;99.90;2.20;101398.00;;;;337592;28;90267;-90
2023/02/12 00:36:34;;;;;;;;;;;1.40;99.90;2.10;101403.00;;;;337931;28;82588;-89
2023/02/12 00:36:45;;;;;;;;;;;1.40;99.90;2.10;101396.00;;;;338788;28;92198;-89
2023/02/12 00:36:57;;;;;;;;;;;1.40;99.90;2.10;101403.00;;;;337851;28;82351;-90
2023/02/12 00:37:09;;;;;;;;;;;1.40;99.90;2.20;101395.00;;;;337288;28;91056;-90
2023/02/12 00:37:21;;;;;;;;;;;1.40;99.90;2.20;101394.00;;;;336583;28;83457;-90
2023/02/12 00:37:32;;;;;;;;;;;1.40;99.90;2.20;101394.00;;;;336295;28;91368;-90
2023/02/12 00:37:44;;;;;;;;;;;1.40;99.90;2.20;101400.00;;;;338146;28;83299;-90
2023/02/12 00:37:56;;;;;;;;;;;1.40;99.90;2.20;101397.00;;;;337570;28;91479;-89
2023/02/12 00:38:08;;;;;;;;;;;1.40;99.90;2.20;101391.00;;;;337977;28;83505;-90
2023/02/12 00:38:20;;;;;;;;;;;1.40;99.90;2.20;101387.00;;;;336254;28;90722;-90
2023/02/12 00:38:32;;;;;;;;;;;1.50;99.90;2.20;101387.00;;;;336618;28;82532;-90
2023/02/12 00:38:44;;;;;;;;;;;1.40;99.90;2.20;101385.00;;;;336114;28;92445;-90
2023/02/12 00:38:56;;;;;;;;;;;1.50;99.90;2.20;101391.00;;;;336588;28;82525;-90
2023/02/12 00:39:08;;;;;;;;;;;1.50;99.90;2.20;101394.00;;;;337506;28;91384;-89
2023/02/12 00:39:20;;;;;;;;;;;1.40;99.90;2.10;101397.00;;;;337944;28;83397;-90
2023/02/12 00:39:35;;;;;;;;;;;1.40;99.90;2.10;101399.00;;;;337407;28;91929;-90
2023/02/12 00:39:47;;;;;;;;;;;1.40;99.90;2.00;101388.00;;;;336561;28;83252;-89
2023/02/12 00:39:58;;;;;;;;;;;1.40;99.90;2.00;101382.00;;;;335982;28;92224;-89
2023/02/12 00:40:10;;;;;;;;;;;1.40;99.90;2.10;101397.00;;;;336592;28;83506;-90
2023/02/12 00:40:22;;;;;;;;;;;1.40;99.90;2.10;101391.00;;;;337412;28;91457;-90
2023/02/12 00:40:34;;;;;;;;;;;1.40;99.90;2.10;101393.00;;;;336587;28;83428;-90
2023/02/12 00:40:46;;;;;;;;;;;1.40;99.90;2.00;101400.00;;;;334851;29;92957;-89
2023/02/12 00:40:58;;;;;;;;;;;1.40;99.90;2.10;101400.00;;;;336653;28;82477;-90
2023/02/12 00:41:09;;;;;;;;;;;1.40;99.90;2.10;101397.00;;;;334891;29;91792;-90
2023/02/12 00:41:21;;;;;;;;;;;1.40;99.90;2.10;101395.00;;;;336680;28;83403;-90
2023/02/12 00:41:33;;;;;;;;;;;1.40;99.90;2.10;101401.00;;;;337478;28;91032;-89
2023/02/12 00:41:45;;;;;;;;;;;1.40;99.90;2.00;101396.00;;;;337977;28;83342;-90
2023/02/12 00:41:57;;;;;;;;;;;1.40;99.90;2.00;101403.00;;;;338771;28;90397;-90
2023/02/12 00:42:08;;;;;;;;;;;1.40;99.90;2.10;101400.00;;;;336648;28;82365;-90
2023/02/12 00:42:20;;;;;;;;;;;1.40;99.90;2.20;101395.00;;;;336295;28;91166;-89
2023/02/12 00:42:32;;;;;;;;;;;1.40;99.90;2.20;101383.00;;;;336667;28;83489;-90
2023/02/12 00:42:44;;;;;;;;;;;1.40;99.90;2.30;101389.00;;;;334734;29;90267;-89
2023/02/12 00:42:55;;;;;;;;;;;1.40;99.90;2.30;101395.00;;;;337972;28;83151;-90
2023/02/12 00:43:07;;;;;;;;;;;1.40;99.90;2.20;101402.00;;;;337600;28;91568;-89
2023/02/12 00:43:19;;;;;;;;;;;1.40;99.90;2.20;101395.00;;;;336662;28;82527;-90
2023/02/12 00:43:31;;;;;;;;;;;1.40;99.90;2.10;101396.00;;;;335975;28;89271;-89
2023/02/12 00:43:43;;;;;;;;;;;1.40;99.90;2.20;101402.00;;;;335267;29;83554;-90
2023/02/12 00:43:54;;;;;;;;;;;1.40;99.90;2.20;101405.00;;;;336190;28;91503;-89
2023/02/12 00:44:06;;;;;;;;;;;1.40;99.90;2.20;101392.00;;;;335374;29;83462;-89
2023/02/12 00:44:18;;;;;;;;;;;1.40;99.90;2.30;101398.00;;;;336306;28;90272;-89
2023/02/12 00:44:30;;;;;;;;;;;1.40;99.90;2.30;101392.00;;;;337950;28;83595;-89
2023/02/12 00:44:42;;;;;;;;;;;1.40;99.90;2.30;101394.00;;;;337382;28;93089;-89
2023/02/12 00:44:53;;;;;;;;;;;1.40;99.90;2.30;101386.00;;;;336577;28;83381;-89
2023/02/12 00:45:06;;;;;;;;;;;1.50;99.90;2.30;101395.00;;;;334894;29;91142;-90
2023/02/12 00:45:18;;;;;;;;;;;1.40;99.90;2.20;101396.00;;;;336636;28;82338;-90
2023/02/12 00:45:29;;;;;;;;;;;1.40;99.90;2.20;101397.00;;;;337462;28;89974;-89
2023/02/12 00:45:43;;;;;;;;;;;1.40;99.90;2.20;101392.00;;;;335102;29;84014;-90
2023/02/12 00:45:55;;;;;;;;;;;1.50;99.90;2.20;101386.00;;;;333614;29;91149;-90
2023/02/12 00:46:08;;;;;;;;;;;1.40;99.90;2.10;101405.00;;;;336672;28;83419;-90
2023/02/12 00:46:20;;;;;;;;;;;1.40;99.90;2.10;101390.00;;;;336250;28;90437;-90
2023/02/12 00:46:32;;;;;;;;;;;1.40;99.90;2.20;101405.00;;;;335312;29;82554;-90
2023/02/12 00:46:43;;;;;;;;;;;1.40;99.90;2.10;101401.00;;;;337249;28;90547;-90
2023/02/12 00:46:56;;;;;;;;;;;1.40;99.90;2.00;101399.00;;;;337946;28;82499;-90
2023/02/12 00:47:07;;;;;;;;;;;1.40;99.90;2.00;101396.00;;;;334876;29;92528;-89
2023/02/12 00:47:19;;;;;;;;;;;1.40;99.90;2.00;101397.00;;;;335331;29;83469;-90
2023/02/12 00:47:31;;;;;;;;;;;1.40;99.90;2.10;101400.00;;;;336174;28;91652;-89
2023/02/12 00:47:43;;;;;;;;;;;1.40;99.90;2.20;101394.00;;;;336254;28;83515;-90
2023/02/12 00:47:54;;;;;;;;;;;1.40;99.90;2.20;101392.00;;;;334955;29;90289;-90
2023/02/12 00:48:06;;;;;;;;;;;1.40;99.90;2.20;101400.00;;;;335393;29;82476;-90
2023/02/12 00:48:18;;;;;;;;;;;1.40;99.90;2.20;101398.00;;;;336331;28;88065;-90
2023/02/12 00:48:30;;;;;;;;;;;1.40;99.90;2.30;101394.00;;;;335304;29;83434;-90
2023/02/12 00:48:42;;;;;;;;;;;1.40;99.90;2.30;101397.00;;;;336037;28;92547;-90
2023/02/12 00:48:53;;;;;;;;;;;1.40;99.90;2.30;101397.00;;;;337813;28;83590;-90
2023/02/12 00:49:05;;;;;;;;;;;1.40;99.90;2.30;101401.00;;;;337332;28;89849;-90
2023/02/12 00:49:19;;;;;;;;;;;1.40;99.90;2.20;101396.00;;;;336612;28;82417;-90
2023/02/12 00:49:34;;;;;;;;;;;1.40;99.90;2.30;101393.00;;;;334842;29;90648;-90
2023/02/12 00:49:45;;;;;;;;;;;1.40;99.90;2.30;101391.00;;;;337961;28;84029;-90
2023/02/12 00:49:57;;;;;;;;;;;1.50;99.90;2.40;101393.00;;;;337294;28;91047;-89
2023/02/12 00:50:09;;;;;;;;;;;1.40;99.90;2.40;101398.00;;;;339133;28;82551;-90
2023/02/12 00:50:21;;;;;;;;;;;1.50;99.90;2.40;101402.00;;;;337607;28;89486;-90
2023/02/12 00:50:33;;;;;;;;;;;1.50;99.90;2.40;101397.00;;;;338011;28;82550;-89
2023/02/12 00:50:45;;;;;;;;;;;1.50;99.90;2.30;101395.00;;;;337398;28;92176;-90
2023/02/12 00:50:57;;;;;;;;;;;1.50;99.90;2.10;101397.00;;;;337952;28;83341;-90
2023/02/12 00:51:09;;;;;;;;;;;1.50;99.90;2.10;101397.00;;;;338890;28;91401;-89
2023/02/12 00:51:20;;;;;;;;;;;1.50;99.90;2.10;101398.00;;;;336630;28;82500;-90
2023/02/12 00:51:32;;;;;;;;;;;1.40;99.90;2.00;101391.00;;;;336243;28;90342;-89
2023/02/12 00:51:45;;;;;;;;;;;1.40;99.90;2.10;101399.00;;;;336636;28;83229;-90
2023/02/12 00:51:57;;;;;;;;;;;1.40;99.90;2.20;101399.00;;;;337577;28;91435;-90
2023/02/12 00:52:08;;;;;;;;;;;1.40;99.90;2.30;101399.00;;;;337709;28;83301;-90
2023/02/12 00:52:20;;;;;;;;;;;1.40;99.90;2.30;101396.00;;;;337575;28;90879;-89
2023/02/12 00:52:32;;;;;;;;;;;1.50;99.90;2.30;101392.00;;;;337986;28;82526;-90
2023/02/12 00:52:44;;;;;;;;;;;1.40;99.90;2.30;101396.00;;;;334748;29;92546;-89
2023/02/12 00:52:57;;;;;;;;;;;1.50;99.90;2.10;101396.00;;;;337986;28;83401;-89
2023/02/12 00:53:09;;;;;;;;;;;1.50;99.90;2.20;101399.00;;;;337621;28;91515;-90
2023/02/12 00:53:20;;;;;;;;;;;1.50;99.90;2.20;101389.00;;;;337893;28;83324;-90
2023/02/12 00:53:32;;;;;;;;;;;1.40;99.90;2.10;101401.00;;;;336064;28;92051;-89
2023/02/12 00:53:44;;;;;;;;;;;1.40;99.90;2.10;101399.00;;;;334016;29;82556;-89
2023/02/12 00:53:56;;;;;;;;;;;1.50;99.90;2.20;101397.00;;;;336252;28;90839;-89
2023/02/12 00:54:08;;;;;;;;;;;1.40;99.90;2.20;101401.00;;;;336593;28;83428;-90
2023/02/12 00:54:20;;;;;;;;;;;1.40;99.90;2.10;101397.00;;;;336206;28;90953;-90
2023/02/12 00:54:32;;;;;;;;;;;1.40;99.90;2.00;101397.00;;;;336619;28;83455;-90
2023/02/12 00:54:43;;;;;;;;;;;1.40;99.90;2.10;101404.00;;;;337400;28;92358;-90
2023/02/12 00:54:55;;;;;;;;;;;1.40;99.90;2.10;101389.00;;;;337866;28;83273;-90
2023/02/12 00:55:08;;;;;;;;;;;1.40;99.90;2.20;101403.00;;;;334628;29;91456;-90
2023/02/12 00:55:19;;;;;;;;;;;1.40;99.90;2.20;101401.00;;;;336556;28;82883;-90
2023/02/12 00:55:32;;;;;;;;;;;1.40;99.90;2.30;101397.00;;;;336232;28;91565;-90
2023/02/12 00:55:44;;;;;;;;;;;1.50;99.90;2.30;101403.00;;;;336565;28;83514;-90
2023/02/12 00:55:55;;;;;;;;;;;1.40;99.90;2.20;101391.00;;;;337494;28;89477;-89
2023/02/12 00:56:08;;;;;;;;;;;1.40;99.90;2.10;101398.00;;;;337699;28;83484;-90
2023/02/12 00:56:19;;;;;;;;;;;1.40;99.90;2.10;101402.00;;;;337489;28;91250;-90
2023/02/12 00:56:31;;;;;;;;;;;1.40;99.90;2.00;101404.00;;;;337984;28;83401;-90
2023/02/12 00:56:43;;;;;;;;;;;1.40;99.90;1.90;101403.00;;;;337513;28;90190;-89
2023/02/12 00:56:55;;;;;;;;;;;1.40;99.90;1.80;101393.00;;;;336534;28;83567;-90
2023/02/12 00:57:07;;;;;;;;;;;1.40;99.90;1.80;101400.00;;;;336264;28;91435;-90
2023/02/12 00:57:19;;;;;;;;;;;1.40;99.90;2.10;101394.00;;;;337835;28;83320;-89
2023/02/12 00:57:32;;;;;;;;;;;1.40;99.90;2.10;101406.00;;;;335495;28;91532;-90
2023/02/12 00:57:44;;;;;;;;;;;1.40;99.90;2.10;101402.00;;;;336724;28;83359;-89
2023/02/12 00:57:56;;;;;;;;;;;1.40;99.90;1.90;101402.00;;;;334873;29;91534;-89
2023/02/12 00:58:08;;;;;;;;;;;1.40;99.90;1.80;101402.00;;;;334554;29;83611;-89
2023/02/12 00:58:19;;;;;;;;;;;1.40;99.90;1.80;101406.00;;;;337407;28;91615;-89
2023/02/12 00:58:31;;;;;;;;;;;1.30;99.90;2.00;101393.00;;;;335290;29;82516;-90
2023/02/12 00:58:43;;;;;;;;;;;1.40;99.90;2.00;101398.00;;;;336010;28;92490;-90
2023/02/12 00:58:55;;;;;;;;;;;1.40;99.90;2.00;101397.00;;;;339249;28;83243;-89
2023/02/12 00:59:07;;;;;;;;;;;1.40;99.90;2.00;101392.00;;;;337539;28;91268;-90
2023/02/12 00:59:18;;;;;;;;;;;1.40;99.90;2.00;101404.00;;;;339225;28;82975;-90
2023/02/12 00:59:36;;;;;;;;;;;1.40;99.90;2.10;101398.00;;;;336205;28;90352;-90
2023/02/12 00:59:48;;;;;;;;;;;1.40;99.90;2.10;101391.00;;;;335152;29;83581;-90
2023/02/12 01:00:00;;;;;;;;;;;1.40;99.90;2.20;101401.00;;;;334798;29;90472;-90
2023/02/12 01:00:12;;;;;;;;;;;1.30;99.90;2.10;101396.00;;;;335295;29;83306;-90
2023/02/12 01:00:24;;;;;;;;;;;1.40;99.90;2.10;101396.00;;;;335924;28;90341;-90
2023/02/12 01:00:36;;;;;;;;;;;1.40;99.90;2.00;101396.00;;;;336577;28;83403;-90
2023/02/12 01:00:49;;;;;;;;;;;1.40;99.90;2.00;101397.00;;;;336140;28;92160;-90
2023/02/12 01:01:01;;;;;;;;;;;1.40;99.90;2.00;101397.00;;;;336668;28;83428;-90
2023/02/12 01:01:12;;;;;;;;;;;1.40;99.90;2.00;101403.00;;;;335000;29;90289;-90
2023/02/12 01:01:24;;;;;;;;;;;1.30;99.90;2.10;101394.00;;;;336523;28;83513;-90
2023/02/12 01:01:36;;;;;;;;;;;1.30;99.90;2.10;101398.00;;;;337506;28;90826;-90
2023/02/12 01:01:48;;;;;;;;;;;1.40;99.90;2.00;101393.00;;;;335402;29;82460;-90
2023/02/12 01:02:00;;;;;;;;;;;1.30;99.90;2.00;101404.00;;;;336147;28;91468;-90
2023/02/12 01:02:12;;;;;;;;;;;1.30;99.90;2.00;101400.00;;;;336627;28;82610;-90
2023/02/12 01:02:24;;;;;;;;;;;1.40;99.90;2.00;101404.00;;;;337242;28;91919;-90
2023/02/12 01:02:35;;;;;;;;;;;1.30;99.90;1.90;101395.00;;;;335320;29;83553;-90
2023/02/12 01:02:47;;;;;;;;;;;1.30;99.90;1.90;101392.00;;;;337397;28;92778;-89
2023/02/12 01:02:59;;;;;;;;;;;1.30;99.90;1.80;101398.00;;;;335275;29;83405;-90